sensor_id;sensor_type;location;lat;lon;timestamp;pressure;altitude;pressure_sealevel;temperature;humidity
57668;BME280;43499;52.366;12.912;2023-03-22T00:00:09;100791.38;;;8.01;100.00
57668;BME280;43499;52.366;12.912;2023-03-22T00:01:21;100852.09;;;8.35;100.00
57668;BME280;43499;52.366;12.912;2023-03-22T00:02:24;100846.06;;;8.36;100.00
57668;BME280;43499;52.366;12.912;2023-03-22T00:03:30;100817.56;;;8.20;100.00
57668;BME280;43499;52.366;12.912;2023-03-22T00:04:31;100869.38;;;8.52;100.00
57668;BME280;43499;52.366;12.912;2023-03-22T00:05:32;100855.22;;;8.50;100.00
57668;BME280;43499;52.366;12.912;2023-03-22T00:06:33;100864.44;;;8.55;100.00
57668;BME280;43499;52.366;12.912;2023-03-22T00:07:34;100868.72;;;8.55;100.00
57668;BME280;43499;52.366;12.912;2023-03-22T00:08:37;100865.22;;;8.54;100.00
57668;BME280;43499;52.366;12.912;2023-03-22T00:09:38;100836.38;;;8.35;100.00
57668;BME280;43499;52.366;12.912;2023-03-22T00:10:40;100828.28;;;8.42;100.00
57668;BME280;43499;52.366;12.912;2023-03-22T00:11:41;100798.16;;;8.18;100.00
57668;BME280;43499;52.366;12.912;2023-03-22T00:12:42;100856.00;;;8.49;100.00
57668;BME280;43499;52.366;12.912;2023-03-22T00:13:44;100827.72;;;8.36;100.00
57668;BME280;43499;52.366;12.912;2023-03-22T00:14:46;100868.59;;;8.53;100.00
57668;BME280;43499;52.366;12.912;2023-03-22T00:15:49;100866.63;;;8.51;100.00
57668;BME280;43499;52.366;12.912;2023-03-22T00:16:50;100842.50;;;8.36;100.00
57668;BME280;43499;52.366;12.912;2023-03-22T00:17:51;100850.94;;;8.42;100.00
57668;BME280;43499;52.366;12.912;2023-03-22T00:18:52;100857.50;;;8.47;100.00
57668;BME280;43499;52.366;12.912;2023-03-22T00:19:53;100820.19;;;8.20;100.00
57668;BME280;43499;52.366;12.912;2023-03-22T00:20:56;100871.06;;;8.52;100.00
57668;BME280;43499;52.366;12.912;2023-03-22T00:21:57;100849.88;;;8.40;100.00
57668;BME280;43499;52.366;12.912;2023-03-22T00:23:00;100867.53;;;8.51;100.00
57668;BME280;43499;52.366;12.912;2023-03-22T00:24:01;100860.59;;;8.52;100.00
57668;BME280;43499;52.366;12.912;2023-03-22T00:25:03;100855.88;;;8.47;100.00
57668;BME280;43499;52.366;12.912;2023-03-22T00:26:05;100824.06;;;8.34;100.00
57668;BME280;43499;52.366;12.912;2023-03-22T00:27:06;100867.81;;;8.54;100.00
57668;BME280;43499;52.366;12.912;2023-03-22T00:28:07;100852.72;;;8.52;100.00
57668;BME280;43499;52.366;12.912;2023-03-22T00:29:08;100811.19;;;8.27;100.00
57668;BME280;43499;52.366;12.912;2023-03-22T00:30:10;100838.72;;;8.51;100.00
57668;BME280;43499;52.366;12.912;2023-03-22T00:31:11;100864.56;;;8.57;100.00
57668;BME280;43499;52.366;12.912;2023-03-22T00:32:12;100840.28;;;8.49;100.00
57668;BME280;43499;52.366;12.912;2023-03-22T00:33:13;100790.97;;;8.15;100.00
57668;BME280;43499;52.366;12.912;2023-03-22T00:34:14;100842.31;;;8.43;100.00
57668;BME280;43499;52.366;12.912;2023-03-22T00:35:15;100814.34;;;8.33;100.00
57668;BME280;43499;52.366;12.912;2023-03-22T00:36:16;100852.38;;;8.57;100.00
57668;BME280;43499;52.366;12.912;2023-03-22T00:37:17;100794.13;;;8.22;100.00
57668;BME280;43499;52.366;12.912;2023-03-22T00:38:18;100798.22;;;8.28;100.00
57668;BME280;43499;52.366;12.912;2023-03-22T00:39:20;100849.50;;;8.54;100.00
57668;BME280;43499;52.366;12.912;2023-03-22T00:40:21;100787.03;;;8.21;100.00
57668;BME280;43499;52.366;12.912;2023-03-22T00:41:24;100835.81;;;8.48;100.00
57668;BME280;43499;52.366;12.912;2023-03-22T00:42:25;100831.97;;;8.44;100.00
57668;BME280;43499;52.366;12.912;2023-03-22T00:43:26;100834.25;;;8.50;100.00
57668;BME280;43499;52.366;12.912;2023-03-22T00:44:27;100843.47;;;8.55;100.00
57668;BME280;43499;52.366;12.912;2023-03-22T00:45:28;100786.91;;;8.19;100.00
57668;BME280;43499;52.366;12.912;2023-03-22T00:46:29;100845.81;;;8.52;100.00
57668;BME280;43499;52.366;12.912;2023-03-22T00:47:30;100802.31;;;8.35;100.00
57668;BME280;43499;52.366;12.912;2023-03-22T00:48:32;100842.41;;;8.53;100.00
57668;BME280;43499;52.366;12.912;2023-03-22T00:49:33;100837.44;;;8.56;100.00
57668;BME280;43499;52.366;12.912;2023-03-22T00:50:36;100823.31;;;8.45;100.00
57668;BME280;43499;52.366;12.912;2023-03-22T00:51:37;100836.81;;;8.59;100.00
57668;BME280;43499;52.366;12.912;2023-03-22T00:52:38;100833.41;;;8.60;100.00
57668;BME280;43499;52.366;12.912;2023-03-22T00:53:39;100785.25;;;8.30;100.00
57668;BME280;43499;52.366;12.912;2023-03-22T00:54:41;100798.56;;;8.42;100.00
57668;BME280;43499;52.366;12.912;2023-03-22T00:55:42;100832.47;;;8.59;100.00
57668;BME280;43499;52.366;12.912;2023-03-22T00:56:43;100806.25;;;8.40;100.00
57668;BME280;43499;52.366;12.912;2023-03-22T00:57:47;100820.38;;;8.51;100.00
57668;BME280;43499;52.366;12.912;2023-03-22T00:58:48;100804.28;;;8.38;100.00
57668;BME280;43499;52.366;12.912;2023-03-22T00:59:50;100816.84;;;8.51;100.00
57668;BME280;43499;52.366;12.912;2023-03-22T01:00:53;100784.75;;;8.34;100.00
57668;BME280;43499;52.366;12.912;2023-03-22T01:01:55;100837.72;;;8.59;100.00
57668;BME280;43499;52.366;12.912;2023-03-22T01:02:59;100821.81;;;8.47;100.00
57668;BME280;43499;52.366;12.912;2023-03-22T01:04:04;100832.34;;;8.58;100.00
57668;BME280;43499;52.366;12.912;2023-03-22T01:05:06;100832.06;;;8.55;100.00
57668;BME280;43499;52.366;12.912;2023-03-22T01:06:08;100827.94;;;8.48;100.00
57668;BME280;43499;52.366;12.912;2023-03-22T01:07:09;100791.25;;;8.29;100.00
57668;BME280;43499;52.366;12.912;2023-03-22T01:08:11;100813.22;;;8.40;100.00
57668;BME280;43499;52.366;12.912;2023-03-22T01:09:12;100820.25;;;8.49;100.00
57668;BME280;43499;52.366;12.912;2023-03-22T01:10:15;100759.91;;;8.10;100.00
57668;BME280;43499;52.366;12.912;2023-03-22T01:11:17;100824.44;;;8.47;100.00
57668;BME280;43499;52.366;12.912;2023-03-22T01:12:19;100819.94;;;8.46;100.00
57668;BME280;43499;52.366;12.912;2023-03-22T01:13:20;100824.44;;;8.47;100.00
57668;BME280;43499;52.366;12.912;2023-03-22T01:14:21;100816.75;;;8.40;100.00
57668;BME280;43499;52.366;12.912;2023-03-22T01:15:22;100825.16;;;8.46;100.00
57668;BME280;43499;52.366;12.912;2023-03-22T01:16:25;100806.13;;;8.39;100.00
57668;BME280;43499;52.366;12.912;2023-03-22T01:17:26;100813.09;;;8.38;100.00
57668;BME280;43499;52.366;12.912;2023-03-22T01:18:27;100780.13;;;8.21;100.00
57668;BME280;43499;52.366;12.912;2023-03-22T01:19:28;100809.25;;;8.34;100.00
57668;BME280;43499;52.366;12.912;2023-03-22T01:20:29;100812.66;;;8.33;100.00
57668;BME280;43499;52.366;12.912;2023-03-22T01:21:30;100819.88;;;8.36;100.00
57668;BME280;43499;52.366;12.912;2023-03-22T01:22:31;100818.94;;;8.36;100.00
57668;BME280;43499;52.366;12.912;2023-03-22T01:23:32;100816.97;;;8.33;100.00
57668;BME280;43499;52.366;12.912;2023-03-22T01:24:34;100804.34;;;8.29;100.00
57668;BME280;43499;52.366;12.912;2023-03-22T01:25:35;100824.06;;;8.34;100.00
57668;BME280;43499;52.366;12.912;2023-03-22T01:26:36;100816.06;;;8.32;100.00
57668;BME280;43499;52.366;12.912;2023-03-22T01:27:38;100822.84;;;8.30;100.00
57668;BME280;43499;52.366;12.912;2023-03-22T01:28:39;100819.28;;;8.30;100.00
57668;BME280;43499;52.366;12.912;2023-03-22T01:29:40;100822.84;;;8.30;100.00
57668;BME280;43499;52.366;12.912;2023-03-22T01:30:42;100820.06;;;8.29;100.00
57668;BME280;43499;52.366;12.912;2023-03-22T01:31:43;100820.06;;;8.29;100.00
57668;BME280;43499;52.366;12.912;2023-03-22T01:32:45;100809.59;;;8.29;100.00
57668;BME280;43499;52.366;12.912;2023-03-22T01:33:46;100827.03;;;8.28;100.00
57668;BME280;43499;52.366;12.912;2023-03-22T01:34:47;100811.03;;;8.25;100.00
57668;BME280;43499;52.366;12.912;2023-03-22T01:35:48;100811.66;;;8.23;100.00
57668;BME280;43499;52.366;12.912;2023-03-22T01:36:50;100799.84;;;8.17;100.00
57668;BME280;43499;52.366;12.912;2023-03-22T01:37:51;100796.03;;;8.14;100.00
57668;BME280;43499;52.366;12.912;2023-03-22T01:38:53;100800.66;;;8.16;100.00
57668;BME280;43499;52.366;12.912;2023-03-22T01:39:55;100794.19;;;8.13;100.00
57668;BME280;43499;52.366;12.912;2023-03-22T01:40:56;100783.72;;;8.13;100.00
57668;BME280;43499;52.366;12.912;2023-03-22T01:41:57;100755.38;;;7.98;100.00
57668;BME280;43499;52.366;12.912;2023-03-22T01:42:59;100801.50;;;8.26;100.00
57668;BME280;43499;52.366;12.912;2023-03-22T01:44:17;100771.63;;;8.05;100.00
57668;BME280;43499;52.366;12.912;2023-03-22T01:46:35;100792.56;;;8.24;100.00
57668;BME280;43499;52.366;12.912;2023-03-22T01:47:36;100787.47;;;8.25;100.00
57668;BME280;43499;52.366;12.912;2023-03-22T01:48:40;100774.59;;;8.18;100.00
57668;BME280;43499;52.366;12.912;2023-03-22T01:49:45;100780.13;;;8.21;100.00
57668;BME280;43499;52.366;12.912;2023-03-22T01:50:52;100762.75;;;8.13;100.00
57668;BME280;43499;52.366;12.912;2023-03-22T01:52:02;100714.06;;;7.85;100.00
57668;BME280;43499;52.366;12.912;2023-03-22T01:53:25;100754.25;;;8.05;100.00
57668;BME280;43499;52.366;12.912;2023-03-22T01:54:41;100743.19;;;7.99;100.00
57668;BME280;43499;52.366;12.912;2023-03-22T01:55:58;100759.25;;;8.12;100.00
57668;BME280;43499;52.366;12.912;2023-03-22T01:57:07;100772.53;;;8.24;100.00
57668;BME280;43499;52.366;12.912;2023-03-22T01:58:15;100780.25;;;8.23;100.00
57668;BME280;43499;52.366;12.912;2023-03-22T01:59:24;100766.44;;;8.15;100.00
57668;BME280;43499;52.366;12.912;2023-03-22T02:00:52;100711.16;;;7.82;100.00
57668;BME280;43499;52.366;12.912;2023-03-22T02:02:01;100777.50;;;8.21;100.00
57668;BME280;43499;52.366;12.912;2023-03-22T02:03:03;100774.88;;;8.21;100.00
57668;BME280;43499;52.366;12.912;2023-03-22T02:04:14;100779.19;;;8.21;100.00
57668;BME280;43499;52.366;12.912;2023-03-22T02:05:16;100759.59;;;8.07;100.00
57668;BME280;43499;52.366;12.912;2023-03-22T02:06:19;100779.84;;;8.18;100.00
57668;BME280;43499;52.366;12.912;2023-03-22T02:07:25;100776.44;;;8.19;100.00
57668;BME280;43499;52.366;12.912;2023-03-22T02:08:29;100711.44;;;7.85;100.00
57668;BME280;43499;52.366;12.912;2023-03-22T02:09:35;100763.41;;;8.10;100.00
57668;BME280;43499;52.366;12.912;2023-03-22T02:10:39;100773.81;;;8.19;100.00
57668;BME280;43499;52.366;12.912;2023-03-22T02:11:43;100723.25;;;7.91;100.00
57668;BME280;43499;52.366;12.912;2023-03-22T02:13:47;100753.00;;;8.01;100.00
57668;BME280;43499;52.366;12.912;2023-03-22T02:15:02;100749.50;;;8.01;100.00
57668;BME280;43499;52.366;12.912;2023-03-22T02:16:40;100780.59;;;8.17;100.00
57668;BME280;43499;52.366;12.912;2023-03-22T02:18:09;100784.78;;;8.15;100.00
57668;BME280;43499;52.366;12.912;2023-03-22T02:19:34;100766.38;;;8.05;100.00
57668;BME280;43499;52.366;12.912;2023-03-22T02:22:43;100785.66;;;8.05;100.00
57668;BME280;43499;52.366;12.912;2023-03-22T02:24:34;100774.19;;;7.94;100.00
57668;BME280;43499;52.366;12.912;2023-03-22T02:27:59;100780.84;;;8.10;100.00
57668;BME280;43499;52.366;12.912;2023-03-22T02:29:23;100789.19;;;8.06;100.00
57668;BME280;43499;52.366;12.912;2023-03-22T02:32:24;100789.47;;;8.09;100.00
57668;BME280;43499;52.366;12.912;2023-03-22T02:35:18;100764.91;;;7.98;100.00
57668;BME280;43499;52.366;12.912;2023-03-22T02:36:51;100780.25;;;8.03;100.00
57668;BME280;43499;52.366;12.912;2023-03-22T02:39:44;100748.91;;;7.95;100.00
57668;BME280;43499;52.366;12.912;2023-03-22T02:41:24;100778.47;;;8.13;100.00
57668;BME280;43499;52.366;12.912;2023-03-22T02:44:26;100764.91;;;7.98;100.00
57668;BME280;43499;52.366;12.912;2023-03-22T02:45:42;100758.41;;;8.03;100.00
57668;BME280;43499;52.366;12.912;2023-03-22T02:46:57;100775.44;;;8.08;100.00
57668;BME280;43499;52.366;12.912;2023-03-22T02:48:07;100778.34;;;8.11;100.00
57668;BME280;43499;52.366;12.912;2023-03-22T02:49:17;100776.63;;;8.12;100.00
57668;BME280;43499;52.366;12.912;2023-03-22T02:50:25;100762.28;;;7.98;100.00
57668;BME280;43499;52.366;12.912;2023-03-22T02:51:33;100763.41;;;7.91;100.00
57668;BME280;43499;52.366;12.912;2023-03-22T02:52:45;100789.81;;;8.03;100.00
57668;BME280;43499;52.366;12.912;2023-03-22T02:53:54;100790.88;;;8.05;100.00
57668;BME280;43499;52.366;12.912;2023-03-22T02:55:17;100774.59;;;7.99;100.00
57668;BME280;43499;52.366;12.912;2023-03-22T02:57:47;100745.03;;;7.81;100.00
57668;BME280;43499;52.366;12.912;2023-03-22T02:58:53;100786.44;;;8.04;100.00
57668;BME280;43499;52.366;12.912;2023-03-22T02:59:57;100724.31;;;7.74;100.00
57668;BME280;43499;52.366;12.912;2023-03-22T03:01:02;100746.22;;;7.84;100.00
57668;BME280;43499;52.366;12.912;2023-03-22T03:02:11;100755.44;;;7.90;100.00
57668;BME280;43499;52.366;12.912;2023-03-22T03:03:17;100771.63;;;8.05;100.00
57668;BME280;43499;52.366;12.912;2023-03-22T03:04:24;100771.50;;;8.03;100.00
57668;BME280;43499;52.366;12.912;2023-03-22T03:05:29;100761.63;;;8.00;100.00
57668;BME280;43499;52.366;12.912;2023-03-22T03:06:34;100687.75;;;7.65;100.00
57668;BME280;43499;52.366;12.912;2023-03-22T03:07:42;100744.03;;;7.89;100.00
57668;BME280;43499;52.366;12.912;2023-03-22T03:08:45;100743.53;;;7.93;100.00
57668;BME280;43499;52.366;12.912;2023-03-22T03:09:50;100718.88;;;7.81;100.00
57668;BME280;43499;52.366;12.912;2023-03-22T03:10:52;100757.75;;;8.06;100.00
57668;BME280;43499;52.366;12.912;2023-03-22T03:11:53;100701.19;;;7.78;100.00
57668;BME280;43499;52.366;12.912;2023-03-22T03:12:56;100753.31;;;8.05;100.00
57668;BME280;43499;52.366;12.912;2023-03-22T03:13:57;100738.44;;;7.95;100.00
57668;BME280;43499;52.366;12.912;2023-03-22T03:14:59;100750.13;;;7.98;100.00
57668;BME280;43499;52.366;12.912;2023-03-22T03:16:00;100717.19;;;7.81;100.00
57668;BME280;43499;52.366;12.912;2023-03-22T03:18:18;100751.47;;;8.03;100.00
57668;BME280;43499;52.366;12.912;2023-03-22T03:19:29;100754.72;;;8.01;100.00
57668;BME280;43499;52.366;12.912;2023-03-22T03:22:23;100763.34;;;8.00;100.00
57668;BME280;43499;52.366;12.912;2023-03-22T03:23:48;100762.59;;;8.01;100.00
57668;BME280;43499;52.366;12.912;2023-03-22T03:25:08;100746.47;;;7.96;100.00
57668;BME280;43499;52.366;12.912;2023-03-22T03:26:42;100763.47;;;8.01;100.00
57668;BME280;43499;52.366;12.912;2023-03-22T03:28:00;100757.47;;;8.02;100.00
57668;BME280;43499;52.366;12.912;2023-03-22T03:30:19;100724.59;;;7.77;100.00
57668;BME280;43499;52.366;12.912;2023-03-22T03:31:29;100766.25;;;8.03;100.00
57668;BME280;43499;52.366;12.912;2023-03-22T03:32:46;100723.88;;;7.88;100.00
57668;BME280;43499;52.366;12.912;2023-03-22T03:35:20;100755.56;;;8.10;100.00
57668;BME280;43499;52.366;12.912;2023-03-22T03:36:24;100705.50;;;7.78;100.00
57668;BME280;43499;52.366;12.912;2023-03-22T03:37:30;100757.41;;;8.11;100.00
57668;BME280;43499;52.366;12.912;2023-03-22T03:38:37;100764.47;;;8.12;100.00
57668;BME280;43499;52.366;12.912;2023-03-22T03:39:47;100769.72;;;8.12;100.00
57668;BME280;43499;52.366;12.912;2023-03-22T03:40:55;100747.28;;;8.06;100.00
57668;BME280;43499;52.366;12.912;2023-03-22T03:42:00;100746.50;;;8.07;100.00
57668;BME280;43499;52.366;12.912;2023-03-22T03:43:03;100755.28;;;8.07;100.00
57668;BME280;43499;52.366;12.912;2023-03-22T03:44:06;100768.00;;;8.13;100.00
57668;BME280;43499;52.366;12.912;2023-03-22T03:45:08;100711.66;;;7.78;100.00
57668;BME280;43499;52.366;12.912;2023-03-22T03:46:11;100733.56;;;7.89;100.00
57668;BME280;43499;52.366;12.912;2023-03-22T03:47:13;100725.28;;;7.84;100.00
57668;BME280;43499;52.366;12.912;2023-03-22T03:48:21;100771.91;;;8.08;100.00
57668;BME280;43499;52.366;12.912;2023-03-22T03:49:23;100728.31;;;7.89;100.00
57668;BME280;43499;52.366;12.912;2023-03-22T03:50:25;100754.06;;;8.03;100.00
57668;BME280;43499;52.366;12.912;2023-03-22T03:51:27;100713.75;;;7.82;100.00
57668;BME280;43499;52.366;12.912;2023-03-22T03:52:28;100758.91;;;7.99;100.00
57668;BME280;43499;52.366;12.912;2023-03-22T03:53:29;100730.59;;;7.95;100.00
57668;BME280;43499;52.366;12.912;2023-03-22T03:54:31;100744.38;;;8.02;100.00
57668;BME280;43499;52.366;12.912;2023-03-22T03:55:32;100758.47;;;8.13;100.00
57668;BME280;43499;52.366;12.912;2023-03-22T03:56:33;100719.88;;;7.92;100.00
57668;BME280;43499;52.366;12.912;2023-03-22T03:57:34;100743.25;;;8.09;100.00
57668;BME280;43499;52.366;12.912;2023-03-22T03:58:36;100732.06;;;8.01;100.00
57668;BME280;43499;52.366;12.912;2023-03-22T03:59:37;100714.63;;;7.92;100.00
57668;BME280;43499;52.366;12.912;2023-03-22T04:00:49;100739.44;;;8.06;100.00
57668;BME280;43499;52.366;12.912;2023-03-22T04:01:56;100733.00;;;8.02;100.00
57668;BME280;43499;52.366;12.912;2023-03-22T04:03:04;100739.16;;;8.02;100.00
57668;BME280;43499;52.366;12.912;2023-03-22T04:04:29;100727.50;;;7.99;100.00
57668;BME280;43499;52.366;12.912;2023-03-22T04:05:37;100727.50;;;7.99;100.00
57668;BME280;43499;52.366;12.912;2023-03-22T04:06:38;100754.13;;;8.14;100.00
57668;BME280;43499;52.366;12.912;2023-03-22T04:07:44;100728.91;;;7.95;100.00
57668;BME280;43499;52.366;12.912;2023-03-22T04:08:45;100757.94;;;8.17;100.00
57668;BME280;43499;52.366;12.912;2023-03-22T04:09:48;100738.00;;;8.09;100.00
57668;BME280;43499;52.366;12.912;2023-03-22T04:10:56;100756.13;;;8.16;100.00
57668;BME280;43499;52.366;12.912;2023-03-22T04:11:58;100757.16;;;8.18;100.00
57668;BME280;43499;52.366;12.912;2023-03-22T04:12:59;100750.75;;;8.15;100.00
57668;BME280;43499;52.366;12.912;2023-03-22T04:14:00;100740.78;;;8.11;100.00
57668;BME280;43499;52.366;12.912;2023-03-22T04:15:01;100731.66;;;7.97;100.00
57668;BME280;43499;52.366;12.912;2023-03-22T04:16:03;100738.78;;;8.08;100.00
57668;BME280;43499;52.366;12.912;2023-03-22T04:17:08;100729.44;;;8.01;100.00
57668;BME280;43499;52.366;12.912;2023-03-22T04:18:10;100745.44;;;8.05;100.00
57668;BME280;43499;52.366;12.912;2023-03-22T04:19:13;100750.63;;;8.13;100.00
57668;BME280;43499;52.366;12.912;2023-03-22T04:20:14;100751.03;;;8.18;100.00
57668;BME280;43499;52.366;12.912;2023-03-22T04:21:15;100753.53;;;8.16;100.00
57668;BME280;43499;52.366;12.912;2023-03-22T04:22:26;100750.25;;;8.19;100.00
57668;BME280;43499;52.366;12.912;2023-03-22T04:23:27;100751.94;;;8.18;100.00
57668;BME280;43499;52.366;12.912;2023-03-22T04:24:28;100738.00;;;8.09;100.00
57668;BME280;43499;52.366;12.912;2023-03-22T04:25:30;100717.78;;;7.98;100.00
57668;BME280;43499;52.366;12.912;2023-03-22T04:26:39;100751.53;;;8.14;100.00
57668;BME280;43499;52.366;12.912;2023-03-22T04:28:01;100740.22;;;8.05;100.00
57668;BME280;43499;52.366;12.912;2023-03-22T04:29:05;100718.94;;;7.91;100.00
57668;BME280;43499;52.366;12.912;2023-03-22T04:30:11;100748.91;;;8.14;100.00
57668;BME280;43499;52.366;12.912;2023-03-22T04:31:52;100737.22;;;8.10;100.00
57668;BME280;43499;52.366;12.912;2023-03-22T04:32:57;100744.19;;;8.10;100.00
57668;BME280;43499;52.366;12.912;2023-03-22T04:34:09;100711.25;;;7.93;100.00
57668;BME280;43499;52.366;12.912;2023-03-22T04:35:22;100746.81;;;8.10;100.00
57668;BME280;43499;52.366;12.912;2023-03-22T04:36:25;100742.19;;;8.07;100.00
57668;BME280;43499;52.366;12.912;2023-03-22T04:37:48;100732.72;;;7.99;100.00
57668;BME280;43499;52.366;12.912;2023-03-22T04:38:52;100739.31;;;8.04;100.00
57668;BME280;43499;52.366;12.912;2023-03-22T04:39:57;100667.59;;;7.64;100.00
57668;BME280;43499;52.366;12.912;2023-03-22T04:41:11;100737.47;;;8.03;100.00
57668;BME280;43499;52.366;12.912;2023-03-22T04:42:18;100737.81;;;7.97;100.00
57668;BME280;43499;52.366;12.912;2023-03-22T04:43:20;100718.22;;;7.83;100.00
57668;BME280;43499;52.366;12.912;2023-03-22T04:44:43;100733.06;;;7.93;100.00
57668;BME280;43499;52.366;12.912;2023-03-22T04:45:44;100728.50;;;7.91;100.00
57668;BME280;43499;52.366;12.912;2023-03-22T04:46:47;100746.59;;;7.98;100.00
57668;BME280;43499;52.366;12.912;2023-03-22T04:47:49;100746.59;;;7.98;100.00
57668;BME280;43499;52.366;12.912;2023-03-22T04:48:50;100734.78;;;7.93;100.00
57668;BME280;43499;52.366;12.912;2023-03-22T04:49:52;100706.63;;;7.71;100.00
57668;BME280;43499;52.366;12.912;2023-03-22T04:50:53;100692.88;;;7.63;100.00
57668;BME280;43499;52.366;12.912;2023-03-22T04:51:57;100737.41;;;7.93;100.00
57668;BME280;43499;52.366;12.912;2023-03-22T04:53:21;100742.78;;;7.94;100.00
57668;BME280;43499;52.366;12.912;2023-03-22T04:54:27;100738.44;;;7.95;100.00
57668;BME280;43499;52.366;12.912;2023-03-22T04:55:29;100715.97;;;7.78;100.00
57668;BME280;43499;52.366;12.912;2023-03-22T04:56:30;100728.63;;;7.92;100.00
57668;BME280;43499;52.366;12.912;2023-03-22T04:57:31;100683.78;;;7.60;100.00
57668;BME280;43499;52.366;12.912;2023-03-22T04:58:33;100711.94;;;7.81;100.00
57668;BME280;43499;52.366;12.912;2023-03-22T04:59:35;100727.56;;;7.90;100.00
57668;BME280;43499;52.366;12.912;2023-03-22T05:00:36;100724.53;;;7.85;100.00
57668;BME280;43499;52.366;12.912;2023-03-22T05:01:37;100728.06;;;7.86;100.00
57668;BME280;43499;52.366;12.912;2023-03-22T05:02:47;100696.88;;;7.79;100.00
57668;BME280;43499;52.366;12.912;2023-03-22T05:03:55;100696.97;;;7.70;100.00
57668;BME280;43499;52.366;12.912;2023-03-22T05:04:57;100689.91;;;7.69;100.00
57668;BME280;43499;52.366;12.912;2023-03-22T05:06:07;100726.78;;;7.91;100.00
57668;BME280;43499;52.366;12.912;2023-03-22T05:07:23;100706.50;;;7.88;100.00
57668;BME280;43499;52.366;12.912;2023-03-22T05:08:29;100724.44;;;7.94;100.00
57668;BME280;43499;52.366;12.912;2023-03-22T05:09:30;100708.16;;;7.88;100.00
57668;BME280;43499;52.366;12.912;2023-03-22T05:10:33;100710.53;;;7.85;100.00
57668;BME280;43499;52.366;12.912;2023-03-22T05:11:34;100693.06;;;7.75;100.00
57668;BME280;43499;52.366;12.912;2023-03-22T05:13:08;100700.06;;;7.85;100.00
57668;BME280;43499;52.366;12.912;2023-03-22T05:14:14;100668.81;;;7.67;100.00
57668;BME280;43499;52.366;12.912;2023-03-22T05:15:16;100659.75;;;7.64;100.00
57668;BME280;43499;52.366;12.912;2023-03-22T05:16:17;100713.34;;;7.97;100.00
57668;BME280;43499;52.366;12.912;2023-03-22T05:17:24;100718.56;;;7.97;100.00
57668;BME280;43499;52.366;12.912;2023-03-22T05:18:28;100722.13;;;7.97;100.00
57668;BME280;43499;52.366;12.912;2023-03-22T05:19:32;100693.00;;;7.84;100.00
57668;BME280;43499;52.366;12.912;2023-03-22T05:20:33;100648.75;;;7.57;100.00
57668;BME280;43499;52.366;12.912;2023-03-22T05:21:43;100693.69;;;7.72;100.00
57668;BME280;43499;52.366;12.912;2023-03-22T05:22:44;100714.41;;;7.99;100.00
57668;BME280;43499;52.366;12.912;2023-03-22T05:23:45;100673.84;;;7.75;100.00
57668;BME280;43499;52.366;12.912;2023-03-22T05:24:47;100694.66;;;7.83;100.00
57668;BME280;43499;52.366;12.912;2023-03-22T05:25:53;100711.78;;;7.99;100.00
57668;BME280;43499;52.366;12.912;2023-03-22T05:26:56;100651.63;;;7.61;100.00
57668;BME280;43499;52.366;12.912;2023-03-22T05:28:01;100705.72;;;7.90;100.00
57668;BME280;43499;52.366;12.912;2023-03-22T05:29:10;100713.50;;;7.98;100.00
57668;BME280;43499;52.366;12.912;2023-03-22T05:30:31;100718.09;;;8.01;100.00
57668;BME280;43499;52.366;12.912;2023-03-22T05:31:39;100708.75;;;7.94;100.00
57668;BME280;43499;52.366;12.912;2023-03-22T05:32:41;100711.78;;;7.99;100.00
57668;BME280;43499;52.366;12.912;2023-03-22T05:33:44;100688.81;;;7.86;100.00
57668;BME280;43499;52.366;12.912;2023-03-22T05:34:47;100706.13;;;7.94;100.00
57668;BME280;43499;52.366;12.912;2023-03-22T05:35:59;100706.00;;;7.93;100.00
57668;BME280;43499;52.366;12.912;2023-03-22T05:37:03;100685.91;;;7.83;100.00
57668;BME280;43499;52.366;12.912;2023-03-22T05:38:13;100687.75;;;7.84;100.00
57668;BME280;43499;52.366;12.912;2023-03-22T05:39:19;100709.94;;;7.98;100.00
57668;BME280;43499;52.366;12.912;2023-03-22T05:40:21;100723.44;;;8.02;100.00
57668;BME280;43499;52.366;12.912;2023-03-22T05:41:22;100718.09;;;8.01;100.00
57668;BME280;43499;52.366;12.912;2023-03-22T05:42:24;100709.16;;;7.99;100.00
57668;BME280;43499;52.366;12.912;2023-03-22T05:43:26;100711.78;;;7.99;100.00
57668;BME280;43499;52.366;12.912;2023-03-22T05:44:27;100718.22;;;8.02;100.00
57668;BME280;43499;52.366;12.912;2023-03-22T05:45:37;100722.97;;;8.07;100.00
57668;BME280;43499;52.366;12.912;2023-03-22T05:46:46;100692.47;;;7.88;100.00
57668;BME280;43499;52.366;12.912;2023-03-22T05:47:59;100713.13;;;8.04;100.00
57668;BME280;43499;52.366;12.912;2023-03-22T05:49:02;100712.06;;;8.02;100.00
57668;BME280;43499;52.366;12.912;2023-03-22T05:50:04;100707.91;;;8.04;100.00
57668;BME280;43499;52.366;12.912;2023-03-22T05:51:09;100685.97;;;7.93;100.00
57668;BME280;43499;52.366;12.912;2023-03-22T05:52:13;100658.81;;;7.82;100.00
57668;BME280;43499;52.366;12.912;2023-03-22T05:53:37;100681.91;;;7.97;100.00
57668;BME280;43499;52.366;12.912;2023-03-22T05:54:43;100685.72;;;8.00;100.00
57668;BME280;43499;52.366;12.912;2023-03-22T05:55:45;100699.03;;;8.12;100.00
57668;BME280;43499;52.366;12.912;2023-03-22T05:56:47;100708.44;;;8.10;100.00
57668;BME280;43499;52.366;12.912;2023-03-22T05:57:48;100720.09;;;8.14;100.00
57668;BME280;43499;52.366;12.912;2023-03-22T05:58:51;100667.34;;;7.90;100.00
57668;BME280;43499;52.366;12.912;2023-03-22T05:59:57;100706.88;;;8.12;100.00